Terminal Aerodrome Forecast
Issued by NWS

Home | Current Version | Previous Version | Text Only | Print | Product List | Glossary On
Versions: 1 2 3 4 5 6 7 8 9 10 11 12 13 14 15 16 17 18
000
FTUS41 KBOX 062334
TAFBED
TAF
KBED 062334Z 0700/0724 09008KT P6SM VCSH SCT015 BKN025
     FM070400 07005KT 6SM -DZ BR VCSH OVC008
     FM070900 04005KT 2SM -DZ BR VCSH OVC003
     FM071500 05006KT 4SM BR BKN008
     FM071800 05006KT P6SM VCSH BKN010
     FM071900 05006KT P6SM BKN010=

USA.gov is the U.S. government's official web portal to all federal, state and local government web resources and services.